Time;durP1;ratioP1;P1;durP2;ratioP2;P2;SDS_P1;SDS_P2;PMS_P1;PMS_P2;Temp;Humidity;BMP_temperature;BMP_pressure;BME280_temperature;BME280_humidity;BME280_pressure;Samples;Min_cycle;Max_cycle;Signal;HPM_P1;HPM_P2
2021/09/24 00:01:50;;;;;;;28.45;5.70;;;;;;;12.15;77.23;100282.94;5045188;28;20057;-83
2021/09/24 00:04:18;;;;;;;41.63;7.15;;;;;;;12.15;77.17;100275.00;5048496;28;20086;-83
2021/09/24 00:06:45;;;;;;;34.45;5.90;;;;;;;12.19;77.22;100273.00;5055860;28;20059;-82
2021/09/24 00:09:13;;;;;;;40.00;6.68;;;;;;;12.15;77.80;100264.47;5029151;28;20432;-82
2021/09/24 00:11:41;;;;;;;30.85;5.47;;;;;;;12.09;78.03;100262.28;5029210;28;20047;-84
2021/09/24 00:14:09;;;;;;;27.38;6.22;;;;;;;12.12;77.90;100267.34;5063197;28;20032;-84
2021/09/24 00:16:39;;;;;;;43.53;6.63;;;;;;;12.11;78.24;100273.56;5021194;28;20051;-83
2021/09/24 00:19:06;;;;;;;40.55;5.72;;;;;;;12.09;78.82;100271.97;5027874;28;20063;-83
2021/09/24 00:21:33;;;;;;;34.95;5.82;;;;;;;12.08;79.19;100283.50;5061465;28;20049;-83
2021/09/24 00:24:01;;;;;;;44.38;7.10;;;;;;;12.01;79.67;100285.72;5048268;28;20339;-84
2021/09/24 00:26:29;;;;;;;36.63;5.88;;;;;;;12.06;80.33;100283.59;5052572;28;20053;-84
2021/09/24 00:28:58;;;;;;;36.97;6.70;;;;;;;12.00;80.94;100277.91;5035146;28;20044;-82
2021/09/24 00:31:26;;;;;;;34.83;5.78;;;;;;;11.92;81.62;100278.44;5051015;28;20564;-82
2021/09/24 00:33:54;;;;;;;31.20;6.70;;;;;;;12.00;81.79;100289.31;5037139;28;20212;-85
2021/09/24 00:36:21;;;;;;;41.22;6.47;;;;;;;11.95;82.40;100288.78;5052427;28;20126;-84
2021/09/24 00:38:49;;;;;;;39.60;6.70;;;;;;;11.95;83.12;100282.66;5056030;28;20048;-83
2021/09/24 00:41:17;;;;;;;37.28;6.78;;;;;;;11.97;83.12;100286.88;5050169;28;20040;-84
2021/09/24 00:43:44;;;;;;;38.33;7.05;;;;;;;11.95;83.73;100299.34;5054341;28;20061;-82
2021/09/24 00:46:12;;;;;;;38.53;6.55;;;;;;;11.85;83.95;100285.94;5055622;28;20364;-84
2021/09/24 00:48:39;;;;;;;34.42;6.85;;;;;;;11.81;84.90;100288.88;5057561;28;20144;-82
2021/09/24 00:51:06;;;;;;;37.67;7.47;;;;;;;11.84;84.37;100278.13;5049975;28;20099;-85
2021/09/24 00:53:35;;;;;;;31.80;6.03;;;;;;;11.75;84.72;100284.00;5035140;28;20131;-83
2021/09/24 00:56:02;;;;;;;34.72;6.10;;;;;;;11.80;85.08;100279.28;5040518;28;20057;-84
2021/09/24 00:58:31;;;;;;;43.03;6.32;;;;;;;11.79;84.80;100288.13;5062079;28;20588;-83
2021/09/24 01:00:58;;;;;;;48.28;7.32;;;;;;;11.80;84.38;100289.84;5053173;28;20072;-83
2021/09/24 01:03:26;;;;;;;36.78;6.25;;;;;;;11.82;84.64;100287.91;5038251;28;20140;-83
2021/09/24 01:05:55;;;;;;;34.85;6.28;;;;;;;11.73;85.47;100289.41;5042423;28;20163;-82
2021/09/24 01:08:22;;;;;;;38.53;6.57;;;;;;;11.78;85.34;100291.72;5028888;28;20051;-85
2021/09/24 01:10:49;;;;;;;40.40;5.78;;;;;;;11.92;84.31;100291.63;5057159;28;20044;-83
2021/09/24 01:13:17;;;;;;;37.60;6.65;;;;;;;11.97;83.78;100281.59;5061248;28;20091;-83
2021/09/24 01:15:45;;;;;;;32.70;5.70;;;;;;;12.02;83.95;100291.81;5034557;28;20432;-83
2021/09/24 01:18:12;;;;;;;33.10;6.07;;;;;;;12.04;83.47;100288.13;5058895;28;20139;-82
2021/09/24 01:20:40;;;;;;;27.00;6.32;;;;;;;12.07;83.32;100281.81;5041191;28;20147;-84
2021/09/24 01:23:08;;;;;;;37.45;7.05;;;;;;;12.12;83.00;100300.81;5044806;28;20529;-83
2021/09/24 01:25:35;;;;;;;24.95;5.40;;;;;;;12.10;83.20;100297.41;5054065;28;20617;-83
2021/09/24 01:28:03;;;;;;;36.17;5.88;;;;;;;12.13;83.34;100305.13;5036009;28;20041;-84
2021/09/24 01:30:30;;;;;;;42.53;6.70;;;;;;;12.17;83.05;100309.22;5059539;28;20067;-85
2021/09/24 01:32:57;;;;;;;33.30;7.18;;;;;;;12.16;83.50;100313.66;5046688;28;20063;-82
2021/09/24 01:35:25;;;;;;;37.90;6.85;;;;;;;12.26;82.47;100320.94;5046797;28;20558;-84
2021/09/24 01:37:52;;;;;;;30.98;5.35;;;;;;;12.32;82.85;100307.28;5061827;28;20651;-82
2021/09/24 01:40:20;;;;;;;34.92;6.40;;;;;;;12.33;81.75;100316.88;5045938;28;20148;-83
2021/09/24 01:42:52;;;;;;;45.55;6.03;;;;;;;12.38;81.25;100323.56;5063060;28;20060;-84
2021/09/24 01:45:21;;;;;;;33.85;6.47;;;;;;;12.37;81.63;100313.09;5056099;28;20053;-81
2021/09/24 01:47:48;;;;;;;39.75;6.80;;;;;;;12.40;81.46;100334.84;5058849;28;20048;-84
2021/09/24 01:50:16;;;;;;;30.15;5.18;;;;;;;12.28;82.15;100338.34;5055642;28;20145;-82
2021/09/24 01:52:44;;;;;;;32.22;5.80;;;;;;;12.21;82.28;100328.34;5060683;28;20076;-83
2021/09/24 01:55:12;;;;;;;37.65;6.38;;;;;;;12.23;82.64;100331.69;5066918;28;20135;-83
2021/09/24 01:57:41;;;;;;;30.85;5.60;;;;;;;12.29;82.64;100337.41;5064437;28;20064;-82
2021/09/24 02:00:12;;;;;;;34.10;5.80;;;;;;;12.35;82.86;100338.75;5050175;28;20052;-83
2021/09/24 02:02:39;;;;;;;32.55;5.38;;;;;;;12.37;81.80;100339.47;5040435;28;20478;-83
2021/09/24 02:05:08;;;;;;;37.22;5.25;;;;;;;12.40;82.18;100334.00;5054617;28;20132;-83
2021/09/24 02:07:35;;;;;;;38.45;5.85;;;;;;;12.36;81.99;100333.34;5039343;28;20102;-84
2021/09/24 02:10:04;;;;;;;35.03;5.40;;;;;;;12.26;82.68;100336.78;5053970;28;20496;-84
2021/09/24 02:12:32;;;;;;;26.58;5.20;;;;;;;12.29;83.13;100336.53;5013009;28;20148;-83
2021/09/24 02:14:59;;;;;;;46.10;6.22;;;;;;;12.32;82.99;100334.53;5036748;28;20060;-83
2021/09/24 02:17:27;;;;;;;28.80;5.45;;;;;;;12.25;83.28;100357.03;5041941;28;20147;-83
2021/09/24 02:19:54;;;;;;;49.03;7.00;;;;;;;12.20;83.97;100351.22;5054228;28;20071;-83
2021/09/24 02:22:21;;;;;;;37.38;6.50;;;;;;;12.29;83.96;100339.16;5024311;28;20107;-84
2021/09/24 02:24:49;;;;;;;34.88;6.45;;;;;;;12.27;83.64;100347.22;5056789;28;20047;-86
2021/09/24 02:27:16;;;;;;;31.88;6.53;;;;;;;12.13;84.42;100350.81;5040060;28;20067;-83
2021/09/24 02:29:44;;;;;;;28.23;5.50;;;;;;;12.23;84.53;100355.44;5058244;28;20055;-82
2021/09/24 02:32:12;;;;;;;28.05;5.50;;;;;;;12.26;84.44;100347.31;5060803;28;20547;-83
2021/09/24 02:34:39;;;;;;;30.95;5.22;;;;;;;12.30;84.26;100362.00;5064335;28;20099;-84
2021/09/24 02:37:06;;;;;;;30.35;5.57;;;;;;;12.19;84.95;100357.47;5050397;28;20466;-83
2021/09/24 02:39:33;;;;;;;38.13;6.70;;;;;;;12.13;85.79;100361.38;5062426;28;20100;-82
2021/09/24 02:42:01;;;;;;;28.52;5.95;;;;;;;12.19;85.17;100383.00;5031341;28;20053;-83
2021/09/24 02:44:28;;;;;;;31.13;5.85;;;;;;;12.27;84.96;100372.75;5043974;28;20248;-85
2021/09/24 02:46:56;;;;;;;37.67;5.57;;;;;;;12.23;85.44;100384.47;5031387;28;20246;-83
2021/09/24 02:49:24;;;;;;;36.55;6.65;;;;;;;12.26;85.50;100377.19;5050592;28;20116;-83
2021/09/24 02:51:51;;;;;;;37.60;6.20;;;;;;;12.25;85.64;100391.34;5027735;28;20090;-83
2021/09/24 02:54:19;;;;;;;34.65;6.40;;;;;;;12.25;85.76;100394.00;5015987;28;20115;-83
2021/09/24 02:56:46;;;;;;;32.67;5.55;;;;;;;12.29;86.00;100398.13;5056497;28;20079;-84
2021/09/24 02:59:13;;;;;;;34.95;6.88;;;;;;;12.26;85.98;100394.84;5058775;28;20152;-82
2021/09/24 03:01:40;;;;;;;29.88;7.15;;;;;;;12.28;86.36;100401.69;5038271;28;20229;-83
2021/09/24 03:04:08;;;;;;;27.30;6.25;;;;;;;12.24;86.54;100394.09;5053855;28;20064;-83
2021/09/24 03:06:36;;;;;;;36.55;5.93;;;;;;;12.31;85.86;100390.06;5030362;28;20215;-83
2021/09/24 03:09:03;;;;;;;30.95;5.75;;;;;;;12.33;86.25;100388.16;5055823;28;20054;-82
2021/09/24 03:11:30;;;;;;;31.38;6.47;;;;;;;12.18;86.69;100398.00;5043458;28;20105;-83
2021/09/24 03:13:57;;;;;;;27.05;6.30;;;;;;;12.27;86.42;100409.72;5054817;28;20094;-82
2021/09/24 03:16:25;;;;;;;34.05;5.97;;;;;;;12.13;87.28;100408.88;5042951;28;20079;-82
2021/09/24 03:18:52;;;;;;;30.50;5.70;;;;;;;12.26;86.40;100413.31;5054761;28;20483;-83
2021/09/24 03:21:19;;;;;;;32.60;4.82;;;;;;;12.22;86.49;100410.03;5055706;28;20044;-84
2021/09/24 03:23:47;;;;;;;31.15;5.53;;;;;;;12.22;87.08;100396.00;5043015;28;20046;-84
2021/09/24 03:26:16;;;;;;;36.05;5.90;;;;;;;12.14;87.46;100407.06;5053102;28;20456;-83
2021/09/24 03:28:44;;;;;;;26.30;4.65;;;;;;;12.19;86.89;100414.66;5048047;28;20068;-83
2021/09/24 03:31:11;;;;;;;32.78;5.18;;;;;;;12.20;86.85;100409.28;5061336;28;20060;-85
2021/09/24 03:33:38;;;;;;;35.38;6.65;;;;;;;12.26;86.90;100421.22;5067084;28;20056;-85
2021/09/24 03:36:05;;;;;;;32.80;5.57;;;;;;;12.34;86.33;100427.66;5055289;28;20126;-82
2021/09/24 03:38:33;;;;;;;30.70;5.30;;;;;;;12.30;86.79;100433.28;5070389;28;20472;-83
2021/09/24 03:41:00;;;;;;;33.55;5.63;;;;;;;12.25;86.96;100415.13;5045331;28;20108;-85
2021/09/24 03:43:27;;;;;;;43.30;6.45;;;;;;;12.13;87.59;100418.59;5062299;28;20063;-85
2021/09/24 03:45:55;;;;;;;25.77;5.25;;;;;;;12.25;87.07;100411.59;5055452;28;20596;-83
2021/09/24 03:48:22;;;;;;;31.60;6.00;;;;;;;12.26;87.23;100423.88;5055072;28;20536;-83
2021/09/24 03:50:49;;;;;;;37.08;5.43;;;;;;;12.18;87.75;100413.00;5030537;28;20040;-83
2021/09/24 03:53:17;;;;;;;33.58;5.38;;;;;;;12.18;87.59;100415.63;5047054;28;20127;-84
2021/09/24 03:55:44;;;;;;;26.38;4.78;;;;;;;12.18;87.56;100411.19;5059623;28;20087;-82
2021/09/24 03:58:11;;;;;;;36.58;6.30;;;;;;;12.09;88.21;100417.09;5051901;28;20176;-82
2021/09/24 04:00:39;;;;;;;37.13;6.28;;;;;;;12.07;88.04;100411.94;5053688;28;20060;-82
2021/09/24 04:03:06;;;;;;;37.97;6.75;;;;;;;12.15;88.37;100409.59;5041921;28;20057;-82
2021/09/24 04:05:33;;;;;;;42.50;8.70;;;;;;;12.12;88.24;100411.63;5054826;28;20072;-81
2021/09/24 04:08:01;;;;;;;31.60;5.50;;;;;;;12.08;88.75;100410.16;5062534;28;20544;-82
2021/09/24 04:10:28;;;;;;;38.83;6.50;;;;;;;12.02;88.95;100421.09;5057346;28;20138;-83
2021/09/24 04:12:55;;;;;;;34.33;5.60;;;;;;;12.00;89.16;100417.72;5061410;28;20050;-83
2021/09/24 04:15:22;;;;;;;28.95;5.38;;;;;;;12.04;89.31;100425.34;5034100;28;20053;-83
2021/09/24 04:17:50;;;;;;;28.60;5.90;;;;;;;11.84;90.33;100425.81;5056430;28;20079;-83
2021/09/24 04:20:17;;;;;;;45.08;6.55;;;;;;;11.88;90.24;100424.69;5030378;28;20072;-83
2021/09/24 04:22:44;;;;;;;49.80;6.30;;;;;;;11.87;91.00;100433.53;5038320;28;20474;-84
2021/09/24 04:25:12;;;;;;;34.65;6.45;;;;;;;11.83;90.83;100424.97;5043436;28;20079;-84
2021/09/24 04:27:39;;;;;;;35.65;5.53;;;;;;;11.85;91.26;100438.09;5057309;28;20095;-86
2021/09/24 04:30:07;;;;;;;37.33;8.25;;;;;;;11.93;90.77;100445.47;5058346;28;20135;-85
2021/09/24 04:32:35;;;;;;;39.40;6.60;;;;;;;11.97;90.48;100444.31;5060179;28;20135;-82
2021/09/24 04:35:02;;;;;;;26.77;4.78;;;;;;;12.01;89.92;100443.16;5055177;28;20053;-79
2021/09/24 04:37:30;;;;;;;34.70;6.50;;;;;;;12.03;89.55;100450.03;5048128;28;20056;-79
2021/09/24 04:39:57;;;;;;;42.88;7.20;;;;;;;12.13;89.30;100451.09;5044430;28;20079;-79
2021/09/24 04:42:27;;;;;;;23.45;5.43;;;;;;;12.07;89.82;100445.41;5060386;28;20041;-83
2021/09/24 04:44:54;;;;;;;39.25;5.75;;;;;;;12.07;89.54;100450.69;5050655;28;20151;-77
2021/09/24 04:47:21;;;;;;;33.72;6.78;;;;;;;12.07;89.83;100445.41;5060538;28;20071;-78
2021/09/24 04:49:48;;;;;;;36.33;6.43;;;;;;;12.04;89.99;100446.44;5055208;28;20053;-77
2021/09/24 04:52:15;;;;;;;36.75;6.45;;;;;;;12.03;90.16;100450.03;5057508;28;20087;-79
2021/09/24 04:54:43;;;;;;;27.85;5.88;;;;;;;12.08;89.96;100447.94;5036655;28;20060;-79
2021/09/24 04:57:10;;;;;;;38.72;7.03;;;;;;;12.04;89.83;100454.34;5004662;28;20590;-80
2021/09/24 04:59:37;;;;;;;36.08;7.18;;;;;;;11.95;90.66;100446.22;5036874;28;20132;-78
2021/09/24 05:02:05;;;;;;;28.17;5.57;;;;;;;12.01;90.13;100451.91;5043352;28;20040;-79
2021/09/24 05:04:32;;;;;;;28.02;5.13;;;;;;;12.04;89.68;100454.34;5023718;28;20189;-82
2021/09/24 05:07:00;;;;;;;29.85;5.35;;;;;;;12.11;89.43;100446.84;5067801;28;20106;-77
2021/09/24 05:09:27;;;;;;;42.05;6.32;;;;;;;12.00;90.22;100447.59;5054936;28;20181;-79
2021/09/24 05:11:55;;;;;;;30.90;5.25;;;;;;;12.12;89.20;100444.13;5059806;28;20077;-77
2021/09/24 05:14:24;;;;;;;37.85;6.70;;;;;;;12.08;89.78;100442.66;5046531;28;20141;-79
2021/09/24 05:16:56;;;;;;;37.47;6.35;;;;;;;12.12;89.49;100444.13;5060868;28;20124;-78
2021/09/24 05:19:23;;;;;;;40.00;6.03;;;;;;;12.15;89.36;100446.53;5051215;28;20049;-82
2021/09/24 05:21:50;;;;;;;34.55;6.32;;;;;;;12.13;89.78;100460.81;5045875;28;20137;-81
2021/09/24 05:24:17;;;;;;;30.88;6.20;;;;;;;12.19;89.81;100459.53;5045629;28;20064;-81
2021/09/24 05:26:44;;;;;;;40.88;7.05;;;;;;;12.16;89.54;100450.06;5067769;28;20144;-79
2021/09/24 05:29:11;;;;;;;52.25;7.75;;;;;;;12.04;90.32;100453.50;5060333;28;20046;-80
2021/09/24 05:31:39;;;;;;;40.72;6.72;;;;;;;12.03;90.33;100454.47;5048886;28;20550;-80
2021/09/24 05:34:06;;;;;;;38.33;7.03;;;;;;;11.96;90.90;100469.00;5043261;28;20067;-81
2021/09/24 05:36:33;;;;;;;34.15;5.63;;;;;;;11.99;90.85;100467.03;5063260;28;20165;-81
2021/09/24 05:39:01;;;;;;;42.78;6.38;;;;;;;11.98;90.89;100470.63;5043234;28;20106;-80
2021/09/24 05:41:28;;;;;;;45.50;7.00;;;;;;;12.06;90.21;100476.19;5056161;28;20351;-81
2021/09/24 05:43:55;;;;;;;31.08;5.97;;;;;;;12.13;89.99;100471.38;5056676;28;20131;-80
2021/09/24 05:46:22;;;;;;;43.60;7.47;;;;;;;12.07;90.81;100475.28;5057043;28;20411;-80
2021/09/24 05:48:49;;;;;;;37.05;5.70;;;;;;;12.16;89.98;100472.00;5023148;28;20072;-79
2021/09/24 05:51:17;;;;;;;34.53;6.10;;;;;;;12.19;90.18;100475.38;5068323;28;20070;-79
2021/09/24 05:53:44;;;;;;;53.40;9.10;;;;;;;12.29;89.11;100477.28;5058624;28;20436;-79
2021/09/24 05:56:11;;;;;;;42.50;6.78;;;;;;;12.36;88.94;100483.00;5037152;28;20143;-78
2021/09/24 05:58:38;;;;;;;50.15;7.43;;;;;;;12.42;89.14;100487.84;5054189;28;20080;-78
2021/09/24 06:01:06;;;;;;;51.42;9.00;;;;;;;12.54;87.67;100486.16;5038950;28;20076;-78
2021/09/24 06:03:34;;;;;;;28.67;6.43;;;;;;;12.66;86.64;100483.50;5055758;28;20536;-79
2021/09/24 06:06:02;;;;;;;50.65;6.88;;;;;;;12.65;86.45;100494.16;5035662;28;20083;-78
2021/09/24 06:08:29;;;;;;;42.47;6.40;;;;;;;12.79;86.55;100480.00;5038860;28;20163;-78
2021/09/24 06:10:58;;;;;;;28.85;5.90;;;;;;;13.07;84.79;100489.47;5043036;28;20476;-80
2021/09/24 06:13:26;;;;;;;41.22;6.35;;;;;;;13.14;83.82;100498.63;5048969;28;20114;-78
2021/09/24 06:15:54;;;;;;;41.08;5.72;;;;;;;13.41;82.72;100512.53;5041618;28;20045;-79
2021/09/24 06:18:28;;;;;;;34.53;6.03;;;;;;;13.29;82.74;100505.50;5064865;28;20079;-80
2021/09/24 06:20:58;;;;;;;31.60;5.80;;;;;;;13.45;82.04;100509.69;5058841;28;20795;-79
2021/09/24 06:23:27;;;;;;;31.15;6.68;;;;;;;13.39;81.95;100517.09;5062729;28;20056;-80
2021/09/24 06:25:59;;;;;;;37.53;6.10;;;;;;;13.38;82.19;100514.59;5059813;28;20052;-78
2021/09/24 06:28:28;;;;;;;33.08;6.63;;;;;;;13.80;80.05;100513.22;5040834;28;20068;-77
2021/09/24 06:30:59;;;;;;;38.58;5.82;;;;;;;14.40;77.21;100511.34;5059934;28;20131;-78
2021/09/24 06:33:28;;;;;;;28.27;5.63;;;;;;;14.08;77.91;100513.81;5024501;28;20052;-79
2021/09/24 06:35:55;;;;;;;39.72;5.75;;;;;;;15.07;73.63;100514.06;5027288;28;20123;-77
2021/09/24 06:38:23;;;;;;;28.08;5.32;;;;;;;15.12;72.69;100522.50;5048866;28;20084;-78
2021/09/24 06:40:50;;;;;;;39.65;6.18;;;;;;;14.49;75.49;100518.63;5038875;28;20072;-78
2021/09/24 06:43:18;;;;;;;44.80;6.78;;;;;;;14.81;73.78;100526.72;5049074;28;20052;-78
2021/09/24 06:45:47;;;;;;;30.52;5.72;;;;;;;15.23;72.83;100531.44;5055383;28;20543;-79
2021/09/24 06:48:16;;;;;;;32.97;5.60;;;;;;;16.05;68.71;100527.34;5041432;28;20390;-79
2021/09/24 06:50:47;;;;;;;22.60;4.70;;;;;;;16.86;65.81;100525.78;5076326;28;20143;-79
2021/09/24 06:53:14;;;;;;;27.60;6.35;;;;;;;17.07;66.01;100525.72;5046634;28;20071;-80
2021/09/24 06:55:41;;;;;;;26.63;6.28;;;;;;;17.90;61.70;100539.66;5027719;28;20052;-81
2021/09/24 06:58:09;;;;;;;30.83;5.65;;;;;;;18.02;60.51;100527.88;5042535;28;20056;-80
2021/09/24 07:00:37;;;;;;;31.00;4.95;;;;;;;18.70;58.73;100533.13;5042495;28;20040;-79
2021/09/24 07:03:04;;;;;;;24.88;5.32;;;;;;;18.76;57.43;100526.38;5038197;28;20468;-80
2021/09/24 07:05:31;;;;;;;26.23;5.13;;;;;;;19.61;54.92;100528.78;5051762;28;20585;-81
2021/09/24 07:07:59;;;;;;;26.83;5.60;;;;;;;19.19;55.93;100541.78;5057916;28;20159;-80
2021/09/24 07:10:26;;;;;;;34.05;5.78;;;;;;;17.97;59.01;100543.44;5030562;28;20139;-80
2021/09/24 07:12:53;;;;;;;34.22;5.60;;;;;;;17.99;59.66;100545.97;5060077;28;20655;-81
2021/09/24 07:15:21;;;;;;;25.40;4.90;;;;;;;19.55;55.17;100539.19;5048010;28;20153;-79
2021/09/24 07:17:49;;;;;;;30.15;4.50;;;;;;;20.12;53.30;100545.94;5055916;28;20063;-78
2021/09/24 07:20:16;;;;;;;21.73;5.03;;;;;;;20.37;52.40;100544.31;5050629;28;20141;-77
2021/09/24 07:22:43;;;;;;;31.92;4.93;;;;;;;21.02;51.21;100533.19;5040653;28;20586;-79
2021/09/24 07:25:11;;;;;;;28.17;5.75;;;;;;;20.04;51.90;100545.91;5045249;28;20580;-80
2021/09/24 07:27:38;;;;;;;21.75;5.60;;;;;;;19.51;54.50;100546.66;5026681;28;20049;-78
2021/09/24 07:30:05;;;;;;;28.48;6.28;;;;;;;20.69;50.82;100543.72;5062684;28;20080;-79
2021/09/24 07:32:33;;;;;;;28.13;5.75;;;;;;;19.77;53.35;100543.28;5032235;28;20112;-82
2021/09/24 07:35:00;;;;;;;26.58;7.82;;;;;;;21.12;49.64;100544.63;5036090;28;20061;-79
2021/09/24 07:37:27;;;;;;;24.48;5.50;;;;;;;21.49;48.50;100546.13;5064148;28;20312;-80
2021/09/24 07:39:54;;;;;;;23.48;5.53;;;;;;;21.91;47.25;100537.16;5050621;28;20083;-79
2021/09/24 07:42:21;;;;;;;23.25;6.68;;;;;;;21.43;48.12;100538.72;5034250;28;20052;-79
2021/09/24 07:44:49;;;;;;;29.70;5.00;;;;;;;21.82;46.59;100544.34;5055227;28;20164;-79
2021/09/24 07:47:16;;;;;;;19.85;5.28;;;;;;;21.59;46.90;100551.34;5062921;28;20127;-78
2021/09/24 07:49:44;;;;;;;25.45;6.13;;;;;;;22.07;46.76;100552.44;5023877;28;20135;-78
2021/09/24 07:52:12;;;;;;;23.63;5.60;;;;;;;21.34;48.41;100555.78;5042208;28;20449;-78
2021/09/24 07:54:39;;;;;;;26.58;5.80;;;;;;;22.47;45.88;100559.69;5058753;28;20363;-79
2021/09/24 07:57:07;;;;;;;22.05;5.20;;;;;;;22.48;45.18;100555.97;5042298;28;20139;-80
2021/09/24 07:59:34;;;;;;;25.45;5.55;;;;;;;22.06;45.32;100562.31;5061109;28;20057;-78
2021/09/24 08:02:01;;;;;;;22.17;4.55;;;;;;;22.67;43.77;100560.97;5065374;28;20127;-80
2021/09/24 08:04:29;;;;;;;22.80;4.78;;;;;;;22.69;44.45;100552.75;5063895;28;20568;-78
2021/09/24 08:06:56;;;;;;;21.55;5.03;;;;;;;22.26;45.27;100564.72;5048938;28;20495;-80
2021/09/24 08:09:23;;;;;;;18.65;4.68;;;;;;;23.56;42.97;100553.63;5039385;28;20040;-79
2021/09/24 08:11:53;;;;;;;22.30;5.22;;;;;;;24.39;40.26;100573.59;5047404;28;20048;-77
2021/09/24 08:14:21;;;;;;;23.08;4.47;;;;;;;22.14;44.40;100569.56;5021103;28;20384;-78
2021/09/24 08:16:48;;;;;;;21.27;5.05;;;;;;;22.45;45.19;100562.50;5065613;28;20128;-78
2021/09/24 08:19:15;;;;;;;26.50;5.93;;;;;;;23.67;41.68;100550.56;5054293;28;20114;-80
2021/09/24 08:21:42;;;;;;;24.63;4.75;;;;;;;23.38;42.35;100561.97;5067606;28;20056;-79
2021/09/24 08:24:10;;;;;;;20.42;4.38;;;;;;;22.75;43.88;100558.28;5064263;28;20131;-79
2021/09/24 08:26:37;;;;;;;53.22;5.47;;;;;;;22.57;44.04;100568.38;5042345;28;20377;-79
2021/09/24 08:29:04;;;;;;;20.30;5.15;;;;;;;21.56;46.50;100570.41;5065957;28;20056;-78
2021/09/24 08:31:33;;;;;;;21.85;4.93;;;;;;;20.90;47.46;100567.44;5060341;28;20044;-79
2021/09/24 08:34:00;;;;;;;26.10;5.78;;;;;;;20.66;48.49;100562.75;5060269;28;20143;-78
2021/09/24 08:36:28;;;;;;;29.70;6.03;;;;;;;20.69;48.77;100581.19;5059078;28;20458;-79
2021/09/24 08:38:55;;;;;;;25.08;4.97;;;;;;;19.90;51.11;100570.44;5066107;28;20384;-80
2021/09/24 08:41:27;;;;;;;30.25;5.55;;;;;;;18.86;53.66;100562.69;5038981;28;20102;-79
2021/09/24 08:43:55;;;;;;;22.33;5.05;;;;;;;18.42;55.66;100577.50;5066068;28;20056;-78
2021/09/24 08:46:22;;;;;;;24.63;5.47;;;;;;;17.99;56.57;100570.78;5040682;28;20118;-78
2021/09/24 08:48:52;;;;;;;29.70;5.13;;;;;;;18.01;56.56;100576.78;5048965;28;20547;-77
2021/09/24 08:51:19;;;;;;;24.27;5.00;;;;;;;17.72;56.87;100580.22;5063058;28;20127;-80
2021/09/24 08:53:46;;;;;;;30.77;6.50;;;;;;;17.95;56.09;100578.19;5067105;28;20135;-78
2021/09/24 08:56:14;;;;;;;32.58;5.95;;;;;;;17.71;57.07;100581.22;5054128;28;20074;-78
2021/09/24 08:58:41;;;;;;;31.50;6.07;;;;;;;18.33;55.88;100584.53;5059377;28;20044;-78
2021/09/24 09:01:09;;;;;;;26.25;4.90;;;;;;;17.81;56.88;100585.75;5043736;28;20052;-79
2021/09/24 09:03:45;;;;;;;27.25;4.55;;;;;;;17.09;59.02;100586.75;5066440;28;20036;-82
2021/09/24 09:06:15;;;;;;;29.73;7.40;;;;;;;17.39;58.50;100586.75;5064502;28;20114;-79
2021/09/24 09:08:44;;;;;;;26.10;6.43;;;;;;;17.69;57.29;100582.31;5066277;28;20503;-79
2021/09/24 09:11:18;;;;;;;38.22;6.32;;;;;;;17.81;57.24;100581.25;5038634;28;20039;-80
2021/09/24 09:13:50;;;;;;;28.27;4.63;;;;;;;17.44;58.09;100589.00;5062996;28;20171;-79
2021/09/24 09:16:38;;;;;;;26.40;5.32;;;;;;;17.65;58.31;100589.78;5056269;28;20071;-77
2021/09/24 09:19:17;;;;;;;29.70;6.05;;;;;;;17.05;59.80;100585.34;5055094;28;20606;-80
2021/09/24 09:21:47;;;;;;;32.15;6.35;;;;;;;17.17;59.44;100597.59;5067921;28;20075;-79
2021/09/24 09:24:17;;;;;;;29.38;5.15;;;;;;;17.50;58.83;100598.25;5038811;28;20080;-81
2021/09/24 09:26:46;;;;;;;23.92;4.53;;;;;;;17.50;58.16;100590.28;5033172;28;20064;-78
2021/09/24 09:29:14;;;;;;;17.45;4.07;;;;;;;17.83;56.89;100597.97;5035795;28;20190;-78
2021/09/24 09:32:00;;;;;;;34.50;5.50;;;;;;;17.56;58.47;100598.56;5047157;28;21005;-79
2021/09/24 09:34:35;;;;;;;24.05;4.72;;;;;;;17.84;57.53;100591.66;5056283;28;20171;-78
2021/09/24 09:37:16;;;;;;;27.92;5.45;;;;;;;17.72;57.90;100590.03;5046525;28;20048;-79
2021/09/24 09:39:44;;;;;;;21.30;5.38;;;;;;;17.56;58.50;100600.38;5058944;28;20510;-77
2021/09/24 09:42:13;;;;;;;32.55;5.25;;;;;;;17.03;60.19;100592.63;5040163;28;20056;-78
2021/09/24 09:44:41;;;;;;;28.52;5.38;;;;;;;17.04;61.75;100600.47;5047062;28;20083;-77
2021/09/24 09:47:08;;;;;;;29.88;7.00;;;;;;;17.31;60.29;100609.69;5060400;28;20045;-79
2021/09/24 09:49:35;;;;;;;30.38;4.60;;;;;;;17.46;59.92;100613.66;5060199;28;20081;-78
2021/09/24 09:52:12;;;;;;;25.75;5.25;;;;;;;17.43;60.13;100611.28;5062850;28;20061;-78
2021/09/24 09:54:39;;;;;;;30.15;5.93;;;;;;;17.48;59.93;100603.72;5058668;28;20056;-78
2021/09/24 09:57:16;;;;;;;24.20;5.40;;;;;;;17.55;60.15;100612.84;5046876;28;20057;-78
2021/09/24 09:59:50;;;;;;;21.42;4.45;;;;;;;17.52;60.07;100607.81;5060925;28;20048;-78
2021/09/24 10:02:31;;;;;;;19.00;3.92;;;;;;;17.52;60.39;100602.47;5068809;28;20569;-78
2021/09/24 10:05:01;;;;;;;21.65;4.43;;;;;;;17.55;60.72;100609.34;5054178;28;20080;-78
2021/09/24 10:07:35;;;;;;;31.52;5.03;;;;;;;17.26;61.34;100595.94;5067553;28;20056;-78
2021/09/24 10:10:11;;;;;;;29.07;4.73;;;;;;;17.62;60.95;100599.84;5064000;28;20079;-79
2021/09/24 10:12:40;;;;;;;32.40;4.50;;;;;;;17.29;62.16;100607.16;5034273;28;21007;-79
2021/09/24 10:15:09;;;;;;;28.02;4.95;;;;;;;17.16;62.60;100611.88;5022754;28;20046;-78
2021/09/24 10:17:37;;;;;;;24.73;4.45;;;;;;;17.00;64.13;100612.34;5051960;28;20124;-79
2021/09/24 10:20:05;;;;;;;36.65;5.25;;;;;;;17.46;62.33;100609.16;5058224;28;20492;-79
2021/09/24 10:22:33;;;;;;;26.05;4.28;;;;;;;18.01;60.24;100611.41;5047493;28;20127;-80
2021/09/24 10:25:00;;;;;;;26.58;4.45;;;;;;;18.05;60.75;100598.66;5026872;28;20123;-78
2021/09/24 10:27:30;;;;;;;20.90;4.20;;;;;;;18.19;60.46;100607.09;5070264;28;20185;-79
2021/09/24 10:30:10;;;;;;;23.02;4.00;;;;;;;18.00;60.99;100599.09;5048646;28;20123;-80
2021/09/24 10:32:52;;;;;;;27.38;5.40;;;;;;;18.21;61.12;100598.97;5050920;28;20076;-78
2021/09/24 10:35:19;;;;;;;25.25;4.55;;;;;;;17.71;62.98;100591.88;5066596;28;20072;-78
2021/09/24 10:37:48;;;;;;;23.40;4.50;;;;;;;17.78;62.81;100597.50;5047826;28;20101;-80
2021/09/24 10:40:22;;;;;;;24.92;4.95;;;;;;;17.85;63.49;100589.81;5035649;28;20100;-78
2021/09/24 10:42:58;;;;;;;25.52;4.68;;;;;;;17.76;63.66;100591.50;5077899;28;20070;-79
2021/09/24 10:45:40;;;;;;;33.92;4.78;;;;;;;17.69;64.18;100583.16;5051191;28;20048;-78
2021/09/24 10:48:20;;;;;;;33.17;4.30;;;;;;;17.68;64.48;100589.47;5048985;28;20056;-79
2021/09/24 10:50:57;;;;;;;21.38;4.72;;;;;;;17.76;64.78;100594.16;5041647;28;20163;-78
2021/09/24 10:53:27;;;;;;;26.63;4.03;;;;;;;17.91;63.71;100590.09;5069091;28;20062;-78
2021/09/24 10:55:54;;;;;;;21.92;4.18;;;;;;;17.80;63.68;100590.25;5057983;28;20051;-78
2021/09/24 10:58:21;;;;;;;24.65;4.72;;;;;;;17.89;63.94;100591.25;5068906;28;20778;-78
2021/09/24 11:00:49;;;;;;;26.27;3.63;;;;;;;17.38;65.96;100585.06;5058261;28;20116;-78
2021/09/24 11:03:22;;;;;;;17.90;4.22;;;;;;;17.27;67.40;100581.66;5055838;28;20078;-79
2021/09/24 11:06:02;;;;;;;21.52;3.08;;;;;;;17.37;66.99;100585.19;5061304;28;20067;-81
2021/09/24 11:08:32;;;;;;;16.55;3.90;;;;;;;17.69;65.80;100582.31;5060527;28;20183;-80
2021/09/24 11:11:06;;;;;;;21.30;3.92;;;;;;;17.20;67.88;100574.22;5055019;28;20446;-79
2021/09/24 11:13:48;;;;;;;15.15;2.88;;;;;;;17.30;68.16;100578.75;5059821;28;20127;-79
2021/09/24 11:16:23;;;;;;;21.60;3.22;;;;;;;17.03;69.05;100574.84;5062476;28;20052;-79
2021/09/24 11:18:58;;;;;;;21.42;3.70;;;;;;;16.45;72.65;100577.97;5059986;28;20183;-79
2021/09/24 11:21:32;;;;;;;;;;;;;;;16.58;72.92;100584.94;5033259;28;20089;-82
2021/09/24 11:24:00;;;;;;;18.33;3.30;;;;;;;16.80;72.29;100579.50;5055598;28;20387;-80